sensor_id;sensor_type;location;lat;lon;timestamp;pressure;altitude;pressure_sealevel;temperature;humidity
8627;BME280;4351;51.422;6.794;2023-05-16T00:00:44;101373.31;;;11.79;100.00
8627;BME280;4351;51.422;6.794;2023-05-16T00:03:13;101375.66;;;11.69;100.00
8627;BME280;4351;51.422;6.794;2023-05-16T00:05:41;101380.00;;;11.55;100.00
8627;BME280;4351;51.422;6.794;2023-05-16T00:08:10;101400.13;;;11.66;100.00
8627;BME280;4351;51.422;6.794;2023-05-16T00:10:38;101408.75;;;11.56;100.00
8627;BME280;4351;51.422;6.794;2023-05-16T00:13:06;101399.06;;;11.52;100.00
8627;BME280;4351;51.422;6.794;2023-05-16T00:15:35;101411.06;;;11.46;100.00
8627;BME280;4351;51.422;6.794;2023-05-16T00:18:04;101386.63;;;11.66;100.00
8627;BME280;4351;51.422;6.794;2023-05-16T00:20:32;101372.72;;;11.40;100.00
8627;BME280;4351;51.422;6.794;2023-05-16T00:23:00;101370.75;;;11.25;100.00
8627;BME280;4351;51.422;6.794;2023-05-16T00:25:29;101375.09;;;11.28;100.00
8627;BME280;4351;51.422;6.794;2023-05-16T00:27:57;101361.91;;;11.40;100.00
8627;BME280;4351;51.422;6.794;2023-05-16T00:30:25;101360.50;;;11.14;100.00
8627;BME280;4351;51.422;6.794;2023-05-16T00:32:53;101358.09;;;11.10;100.00
8627;BME280;4351;51.422;6.794;2023-05-16T00:35:22;101346.41;;;11.09;100.00
8627;BME280;4351;51.422;6.794;2023-05-16T00:37:50;101347.28;;;11.10;100.00
8627;BME280;4351;51.422;6.794;2023-05-16T00:40:20;101349.72;;;11.14;100.00
8627;BME280;4351;51.422;6.794;2023-05-16T00:42:49;101344.97;;;11.02;100.00
8627;BME280;4351;51.422;6.794;2023-05-16T00:45:18;101344.97;;;10.84;100.00
8627;BME280;4351;51.422;6.794;2023-05-16T00:47:46;101362.19;;;10.99;100.00
8627;BME280;4351;51.422;6.794;2023-05-16T00:50:14;101368.94;;;10.90;100.00
8627;BME280;4351;51.422;6.794;2023-05-16T00:52:42;101364.84;;;10.83;100.00
8627;BME280;4351;51.422;6.794;2023-05-16T00:55:10;101365.41;;;10.90;100.00
8627;BME280;4351;51.422;6.794;2023-05-16T00:57:42;101380.81;;;10.88;100.00
8627;BME280;4351;51.422;6.794;2023-05-16T01:00:12;101372.69;;;11.06;100.00
8627;BME280;4351;51.422;6.794;2023-05-16T01:02:41;101381.03;;;11.01;100.00
8627;BME280;4351;51.422;6.794;2023-05-16T01:05:10;101365.47;;;10.88;100.00
8627;BME280;4351;51.422;6.794;2023-05-16T01:07:38;101369.91;;;10.72;100.00
8627;BME280;4351;51.422;6.794;2023-05-16T01:10:07;101376.19;;;10.54;100.00
8627;BME280;4351;51.422;6.794;2023-05-16T01:12:38;101397.22;;;10.65;100.00
8627;BME280;4351;51.422;6.794;2023-05-16T01:15:13;101401.28;;;10.74;100.00
8627;BME280;4351;51.422;6.794;2023-05-16T01:17:52;101390.88;;;10.84;100.00
8627;BME280;4351;51.422;6.794;2023-05-16T01:20:31;101379.44;;;10.61;100.00
8627;BME280;4351;51.422;6.794;2023-05-16T01:23:15;101376.41;;;10.50;100.00
8627;BME280;4351;51.422;6.794;2023-05-16T01:25:55;101379.44;;;10.61;100.00
8627;BME280;4351;51.422;6.794;2023-05-16T01:28:25;101381.66;;;10.53;100.00
8627;BME280;4351;51.422;6.794;2023-05-16T01:30:54;101382.75;;;10.49;100.00
8627;BME280;4351;51.422;6.794;2023-05-16T01:33:22;101373.56;;;10.53;100.00
8627;BME280;4351;51.422;6.794;2023-05-16T01:35:54;101377.06;;;10.55;100.00
8627;BME280;4351;51.422;6.794;2023-05-16T01:38:30;101373.38;;;10.56;100.00
8627;BME280;4351;51.422;6.794;2023-05-16T01:41:07;101362.84;;;10.32;100.00
8627;BME280;4351;51.422;6.794;2023-05-16T01:43:42;101360.38;;;10.27;100.00
8627;BME280;4351;51.422;6.794;2023-05-16T01:46:13;101359.84;;;10.38;100.00
8627;BME280;4351;51.422;6.794;2023-05-16T01:48:46;101365.25;;;10.38;100.00
8627;BME280;4351;51.422;6.794;2023-05-16T01:51:20;101374.25;;;10.19;100.00
8627;BME280;4351;51.422;6.794;2023-05-16T01:53:51;101387.56;;;10.22;100.00
8627;BME280;4351;51.422;6.794;2023-05-16T01:56:20;101405.06;;;10.33;100.00
8627;BME280;4351;51.422;6.794;2023-05-16T01:58:50;101401.19;;;10.39;100.00
8627;BME280;4351;51.422;6.794;2023-05-16T02:01:20;101392.00;;;10.43;100.00
8627;BME280;4351;51.422;6.794;2023-05-16T02:03:47;101399.84;;;10.48;100.00
8627;BME280;4351;51.422;6.794;2023-05-16T02:06:16;101403.78;;;10.40;100.00
8627;BME280;4351;51.422;6.794;2023-05-16T02:08:44;101403.75;;;10.42;100.00
8627;BME280;4351;51.422;6.794;2023-05-16T02:11:12;101386.25;;;10.51;100.00
8627;BME280;4351;51.422;6.794;2023-05-16T02:13:40;101399.16;;;10.24;100.00
8627;BME280;4351;51.422;6.794;2023-05-16T02:16:10;101405.69;;;10.38;100.00
8627;BME280;4351;51.422;6.794;2023-05-16T02:18:40;101385.84;;;10.21;100.00
8627;BME280;4351;51.422;6.794;2023-05-16T02:21:07;101390.94;;;10.28;100.00
8627;BME280;4351;51.422;6.794;2023-05-16T02:23:36;101402.06;;;10.39;100.00
8627;BME280;4351;51.422;6.794;2023-05-16T02:26:04;101410.03;;;10.04;100.00
8627;BME280;4351;51.422;6.794;2023-05-16T02:28:32;101412.88;;;10.00;100.00
8627;BME280;4351;51.422;6.794;2023-05-16T02:31:00;101418.84;;;10.07;100.00
8627;BME280;4351;51.422;6.794;2023-05-16T02:33:30;101416.09;;;10.09;100.00
8627;BME280;4351;51.422;6.794;2023-05-16T02:35:57;101430.66;;;10.24;100.00
8627;BME280;4351;51.422;6.794;2023-05-16T02:38:25;101428.53;;;10.31;100.00
8627;BME280;4351;51.422;6.794;2023-05-16T02:40:54;101440.44;;;10.27;100.00
8627;BME280;4351;51.422;6.794;2023-05-16T02:43:22;101433.72;;;10.16;100.00
8627;BME280;4351;51.422;6.794;2023-05-16T02:45:50;101445.31;;;10.57;100.00
8627;BME280;4351;51.422;6.794;2023-05-16T02:48:18;101455.78;;;10.44;100.00
8627;BME280;4351;51.422;6.794;2023-05-16T02:50:48;101472.22;;;10.20;100.00
8627;BME280;4351;51.422;6.794;2023-05-16T02:53:16;101460.88;;;10.11;100.00
8627;BME280;4351;51.422;6.794;2023-05-16T02:55:44;101457.75;;;10.02;100.00
8627;BME280;4351;51.422;6.794;2023-05-16T02:58:11;101468.41;;;10.05;100.00
8627;BME280;4351;51.422;6.794;2023-05-16T03:00:40;101477.00;;;10.13;100.00
8627;BME280;4351;51.422;6.794;2023-05-16T03:03:08;101476.34;;;10.08;100.00
8627;BME280;4351;51.422;6.794;2023-05-16T03:05:36;101479.25;;;10.22;100.00
8627;BME280;4351;51.422;6.794;2023-05-16T03:08:06;101493.19;;;10.13;100.00
8627;BME280;4351;51.422;6.794;2023-05-16T03:10:34;101496.75;;;10.14;100.00
8627;BME280;4351;51.422;6.794;2023-05-16T03:13:02;101514.09;;;10.08;100.00
8627;BME280;4351;51.422;6.794;2023-05-16T03:15:30;101500.06;;;10.40;100.00
8627;BME280;4351;51.422;6.794;2023-05-16T03:17:57;101519.53;;;9.87;100.00
8627;BME280;4351;51.422;6.794;2023-05-16T03:20:26;101510.06;;;9.97;100.00
8627;BME280;4351;51.422;6.794;2023-05-16T03:22:55;101515.63;;;9.73;100.00
8627;BME280;4351;51.422;6.794;2023-05-16T03:25:24;101513.53;;;9.80;100.00
8627;BME280;4351;51.422;6.794;2023-05-16T03:27:53;101518.16;;;9.97;100.00
8627;BME280;4351;51.422;6.794;2023-05-16T03:30:21;101528.84;;;9.99;100.00
8627;BME280;4351;51.422;6.794;2023-05-16T03:32:49;101526.88;;;9.62;100.00
8627;BME280;4351;51.422;6.794;2023-05-16T03:35:17;101522.78;;;9.53;100.00
8627;BME280;4351;51.422;6.794;2023-05-16T03:37:45;101523.56;;;9.35;100.00
8627;BME280;4351;51.422;6.794;2023-05-16T03:40:13;101517.66;;;9.47;100.00
8627;BME280;4351;51.422;6.794;2023-05-16T03:42:42;101512.78;;;9.35;100.00
8627;BME280;4351;51.422;6.794;2023-05-16T03:45:11;101529.50;;;9.64;100.00
8627;BME280;4351;51.422;6.794;2023-05-16T03:47:39;101524.59;;;9.32;100.00
8627;BME280;4351;51.422;6.794;2023-05-16T03:50:07;101528.16;;;9.53;100.00
8627;BME280;4351;51.422;6.794;2023-05-16T03:52:36;101528.88;;;9.57;100.00
8627;BME280;4351;51.422;6.794;2023-05-16T03:55:05;101537.31;;;9.70;100.00
8627;BME280;4351;51.422;6.794;2023-05-16T03:57:35;101550.59;;;9.75;100.00
8627;BME280;4351;51.422;6.794;2023-05-16T04:00:06;101545.44;;;9.48;100.00
8627;BME280;4351;51.422;6.794;2023-05-16T04:02:37;101555.22;;;9.50;100.00
8627;BME280;4351;51.422;6.794;2023-05-16T04:05:08;101552.47;;;9.52;100.00
8627;BME280;4351;51.422;6.794;2023-05-16T04:07:36;101556.56;;;9.40;100.00
8627;BME280;4351;51.422;6.794;2023-05-16T04:10:05;101558.53;;;9.36;100.00
8627;BME280;4351;51.422;6.794;2023-05-16T04:12:33;101563.28;;;9.29;100.00
8627;BME280;4351;51.422;6.794;2023-05-16T04:15:01;101567.34;;;9.40;100.00
8627;BME280;4351;51.422;6.794;2023-05-16T04:17:31;101582.34;;;9.46;100.00
8627;BME280;4351;51.422;6.794;2023-05-16T04:19:59;101576.91;;;9.47;100.00
8627;BME280;4351;51.422;6.794;2023-05-16T04:22:27;101581.34;;;9.48;100.00
8627;BME280;4351;51.422;6.794;2023-05-16T04:24:55;101583.91;;;9.51;100.00
8627;BME280;4351;51.422;6.794;2023-05-16T04:27:22;101588.78;;;9.64;100.00
8627;BME280;4351;51.422;6.794;2023-05-16T04:29:50;101595.06;;;9.42;100.00
8627;BME280;4351;51.422;6.794;2023-05-16T04:32:18;101595.22;;;9.16;100.00
8627;BME280;4351;51.422;6.794;2023-05-16T04:34:47;101609.25;;;9.25;100.00
8627;BME280;4351;51.422;6.794;2023-05-16T04:37:18;101608.00;;;9.54;100.00
8627;BME280;4351;51.422;6.794;2023-05-16T04:39:46;101619.00;;;9.50;100.00
8627;BME280;4351;51.422;6.794;2023-05-16T04:42:14;101621.78;;;9.26;100.00
8627;BME280;4351;51.422;6.794;2023-05-16T04:44:41;101615.88;;;9.38;100.00
8627;BME280;4351;51.422;6.794;2023-05-16T04:47:10;101628.28;;;9.20;100.00
8627;BME280;4351;51.422;6.794;2023-05-16T04:49:38;101637.44;;;9.16;100.00
8627;BME280;4351;51.422;6.794;2023-05-16T04:52:07;101632.56;;;9.26;100.00
8627;BME280;4351;51.422;6.794;2023-05-16T04:54:36;101644.44;;;9.20;100.00
8627;BME280;4351;51.422;6.794;2023-05-16T04:57:04;101640.94;;;9.18;100.00
8627;BME280;4351;51.422;6.794;2023-05-16T04:59:32;101643.25;;;9.27;100.00
8627;BME280;4351;51.422;6.794;2023-05-16T05:02:00;101642.91;;;9.13;100.00
8627;BME280;4351;51.422;6.794;2023-05-16T05:04:28;101653.66;;;9.14;100.00
8627;BME280;4351;51.422;6.794;2023-05-16T05:06:56;101640.69;;;9.24;100.00
8627;BME280;4351;51.422;6.794;2023-05-16T05:09:25;101646.56;;;9.34;100.00
8627;BME280;4351;51.422;6.794;2023-05-16T05:11:53;101652.44;;;9.44;100.00
8627;BME280;4351;51.422;6.794;2023-05-16T05:14:21;101660.84;;;9.36;100.00
8627;BME280;4351;51.422;6.794;2023-05-16T05:16:49;101655.59;;;9.56;100.00
8627;BME280;4351;51.422;6.794;2023-05-16T05:19:17;101654.22;;;9.45;100.00
8627;BME280;4351;51.422;6.794;2023-05-16T05:21:45;101659.72;;;9.42;100.00
8627;BME280;4351;51.422;6.794;2023-05-16T05:24:13;101672.72;;;9.75;100.00
8627;BME280;4351;51.422;6.794;2023-05-16T05:26:42;101676.19;;;9.57;100.00
8627;BME280;4351;51.422;6.794;2023-05-16T05:29:10;101689.28;;;9.43;100.00
8627;BME280;4351;51.422;6.794;2023-05-16T05:31:38;101692.66;;;9.26;100.00
8627;BME280;4351;51.422;6.794;2023-05-16T05:34:06;101698.31;;;9.65;100.00
8627;BME280;4351;51.422;6.794;2023-05-16T05:36:34;101701.81;;;9.67;100.00
8627;BME280;4351;51.422;6.794;2023-05-16T05:39:02;101712.00;;;9.59;100.00
8627;BME280;4351;51.422;6.794;2023-05-16T05:41:30;101716.22;;;9.66;100.00
8627;BME280;4351;51.422;6.794;2023-05-16T05:43:59;101719.47;;;9.74;100.00
8627;BME280;4351;51.422;6.794;2023-05-16T05:46:27;101720.97;;;9.59;100.00
8627;BME280;4351;51.422;6.794;2023-05-16T05:48:55;101733.38;;;9.86;100.00
8627;BME280;4351;51.422;6.794;2023-05-16T05:51:24;101734.63;;;9.77;100.00
8627;BME280;4351;51.422;6.794;2023-05-16T05:53:53;101739.75;;;9.83;100.00
8627;BME280;4351;51.422;6.794;2023-05-16T05:56:20;101738.50;;;9.92;100.00
8627;BME280;4351;51.422;6.794;2023-05-16T05:58:50;101735.31;;;10.05;100.00
8627;BME280;4351;51.422;6.794;2023-05-16T06:01:19;101733.28;;;10.10;100.00
8627;BME280;4351;51.422;6.794;2023-05-16T06:03:47;101753.50;;;10.20;100.00
8627;BME280;4351;51.422;6.794;2023-05-16T06:06:16;101750.22;;;10.34;100.00
8627;BME280;4351;51.422;6.794;2023-05-16T06:08:44;101756.09;;;10.23;100.00
8627;BME280;4351;51.422;6.794;2023-05-16T06:11:12;101770.00;;;10.35;100.00
8627;BME280;4351;51.422;6.794;2023-05-16T06:13:40;101774.84;;;10.27;100.00
8627;BME280;4351;51.422;6.794;2023-05-16T06:16:08;101777.88;;;10.40;100.00
8627;BME280;4351;51.422;6.794;2023-05-16T06:18:37;101786.28;;;10.32;100.00
8627;BME280;4351;51.422;6.794;2023-05-16T06:21:05;101783.84;;;10.26;100.00
8627;BME280;4351;51.422;6.794;2023-05-16T06:23:33;101793.03;;;10.42;100.00
8627;BME280;4351;51.422;6.794;2023-05-16T06:26:01;101793.84;;;10.44;100.00
8627;BME280;4351;51.422;6.794;2023-05-16T06:28:29;101806.53;;;10.42;100.00
8627;BME280;4351;51.422;6.794;2023-05-16T06:30:57;101812.00;;;10.41;100.00
8627;BME280;4351;51.422;6.794;2023-05-16T06:33:25;101810.19;;;10.41;100.00
8627;BME280;4351;51.422;6.794;2023-05-16T06:35:54;101819.09;;;10.43;100.00
8627;BME280;4351;51.422;6.794;2023-05-16T06:38:22;101815.34;;;10.68;100.00
8627;BME280;4351;51.422;6.794;2023-05-16T06:40:50;101816.56;;;10.61;100.00
8627;BME280;4351;51.422;6.794;2023-05-16T06:43:18;101824.34;;;10.46;100.00
8627;BME280;4351;51.422;6.794;2023-05-16T06:45:46;101826.00;;;10.72;100.00
8627;BME280;4351;51.422;6.794;2023-05-16T06:48:14;101842.13;;;10.94;100.00
8627;BME280;4351;51.422;6.794;2023-05-16T06:50:42;101850.50;;;10.88;100.00
8627;BME280;4351;51.422;6.794;2023-05-16T06:53:11;101849.09;;;10.79;100.00
8627;BME280;4351;51.422;6.794;2023-05-16T06:55:39;101850.63;;;10.85;100.00
8627;BME280;4351;51.422;6.794;2023-05-16T06:58:07;101852.06;;;10.73;100.00
8627;BME280;4351;51.422;6.794;2023-05-16T07:00:35;101859.22;;;10.74;100.00
8627;BME280;4351;51.422;6.794;2023-05-16T07:03:03;101860.97;;;10.75;100.00
8627;BME280;4351;51.422;6.794;2023-05-16T07:05:31;101854.50;;;10.79;100.00
8627;BME280;4351;51.422;6.794;2023-05-16T07:07:59;101854.75;;;10.94;100.00
8627;BME280;4351;51.422;6.794;2023-05-16T07:10:28;101868.50;;;11.08;100.00
8627;BME280;4351;51.422;6.794;2023-05-16T07:12:56;101871.19;;;11.08;100.00
8627;BME280;4351;51.422;6.794;2023-05-16T07:15:26;101870.00;;;11.15;100.00
8627;BME280;4351;51.422;6.794;2023-05-16T07:17:55;101879.13;;;11.53;100.00
8627;BME280;4351;51.422;6.794;2023-05-16T07:20:23;101873.59;;;11.35;100.00
8627;BME280;4351;51.422;6.794;2023-05-16T07:22:51;101881.31;;;11.24;100.00
8627;BME280;4351;51.422;6.794;2023-05-16T07:25:19;101886.22;;;11.35;100.00
8627;BME280;4351;51.422;6.794;2023-05-16T07:27:48;101883.31;;;11.40;100.00
8627;BME280;4351;51.422;6.794;2023-05-16T07:30:16;101884.22;;;11.40;100.00
8627;BME280;4351;51.422;6.794;2023-05-16T07:32:44;101894.53;;;11.51;100.00
8627;BME280;4351;51.422;6.794;2023-05-16T07:35:12;101899.34;;;11.64;100.00
8627;BME280;4351;51.422;6.794;2023-05-16T07:37:40;101893.94;;;11.64;100.00
8627;BME280;4351;51.422;6.794;2023-05-16T07:40:10;101898.97;;;11.52;100.00
8627;BME280;4351;51.422;6.794;2023-05-16T07:42:39;101903.81;;;11.84;100.00
8627;BME280;4351;51.422;6.794;2023-05-16T07:45:09;101901.91;;;11.67;100.00
8627;BME280;4351;51.422;6.794;2023-05-16T07:47:36;101902.84;;;11.66;100.00
8627;BME280;4351;51.422;6.794;2023-05-16T07:50:05;101899.56;;;11.59;100.00
8627;BME280;4351;51.422;6.794;2023-05-16T07:52:33;101901.34;;;11.79;100.00
8627;BME280;4351;51.422;6.794;2023-05-16T07:55:01;101909.22;;;12.03;100.00
8627;BME280;4351;51.422;6.794;2023-05-16T07:57:32;101914.75;;;12.00;100.00
8627;BME280;4351;51.422;6.794;2023-05-16T08:00:01;101915.28;;;12.09;100.00
8627;BME280;4351;51.422;6.794;2023-05-16T08:02:39;101919.09;;;12.24;100.00
8627;BME280;4351;51.422;6.794;2023-05-16T08:05:08;101912.31;;;11.95;100.00
8627;BME280;4351;51.422;6.794;2023-05-16T08:07:36;101922.34;;;12.13;100.00
8627;BME280;4351;51.422;6.794;2023-05-16T08:10:06;101915.34;;;12.26;100.00
8627;BME280;4351;51.422;6.794;2023-05-16T08:12:37;101917.13;;;12.27;100.00
8627;BME280;4351;51.422;6.794;2023-05-16T08:15:07;101920.19;;;12.39;100.00
8627;BME280;4351;51.422;6.794;2023-05-16T08:17:36;101916.47;;;12.22;100.00
8627;BME280;4351;51.422;6.794;2023-05-16T08:20:07;101922.97;;;12.18;100.00
8627;BME280;4351;51.422;6.794;2023-05-16T08:22:35;101923.28;;;12.12;100.00
8627;BME280;4351;51.422;6.794;2023-05-16T08:25:04;101920.16;;;12.00;100.00
8627;BME280;4351;51.422;6.794;2023-05-16T08:27:33;101924.88;;;12.16;100.00
8627;BME280;4351;51.422;6.794;2023-05-16T08:30:01;101927.94;;;12.08;100.00
8627;BME280;4351;51.422;6.794;2023-05-16T08:32:30;101920.56;;;12.12;100.00
8627;BME280;4351;51.422;6.794;2023-05-16T08:34:59;101934.38;;;12.05;100.00
8627;BME280;4351;51.422;6.794;2023-05-16T08:37:29;101940.81;;;12.22;100.00
8627;BME280;4351;51.422;6.794;2023-05-16T08:39:57;101936.84;;;12.10;100.00
8627;BME280;4351;51.422;6.794;2023-05-16T08:42:26;101937.66;;;11.93;100.00
8627;BME280;4351;51.422;6.794;2023-05-16T08:44:54;101932.09;;;11.96;100.00
8627;BME280;4351;51.422;6.794;2023-05-16T08:47:23;101936.34;;;12.02;100.00
8627;BME280;4351;51.422;6.794;2023-05-16T08:49:53;101939.69;;;12.07;100.00
8627;BME280;4351;51.422;6.794;2023-05-16T08:52:26;101928.81;;;12.09;100.00
8627;BME280;4351;51.422;6.794;2023-05-16T08:55:00;101929.72;;;12.28;100.00
8627;BME280;4351;51.422;6.794;2023-05-16T08:57:37;101924.31;;;12.28;100.00
8627;BME280;4351;51.422;6.794;2023-05-16T09:00:07;101928.88;;;12.26;100.00
8627;BME280;4351;51.422;6.794;2023-05-16T09:02:40;101938.28;;;12.19;100.00
8627;BME280;4351;51.422;6.794;2023-05-16T09:05:12;101941.53;;;12.06;100.00
8627;BME280;4351;51.422;6.794;2023-05-16T09:07:41;101945.72;;;12.14;100.00
8627;BME280;4351;51.422;6.794;2023-05-16T09:10:12;101934.91;;;12.14;100.00
8627;BME280;4351;51.422;6.794;2023-05-16T09:12:41;101939.38;;;12.15;100.00
8627;BME280;4351;51.422;6.794;2023-05-16T09:15:10;101939.06;;;12.21;100.00
8627;BME280;4351;51.422;6.794;2023-05-16T09:17:43;101939.03;;;12.40;100.00
8627;BME280;4351;51.422;6.794;2023-05-16T09:20:14;101933.19;;;12.50;100.00
8627;BME280;4351;51.422;6.794;2023-05-16T09:22:50;101929.53;;;12.32;100.00
8627;BME280;4351;51.422;6.794;2023-05-16T09:25:22;101931.09;;;12.18;100.00
8627;BME280;4351;51.422;6.794;2023-05-16T09:27:58;101926.53;;;12.38;100.00
8627;BME280;4351;51.422;6.794;2023-05-16T09:30:30;101935.22;;;12.45;100.00
8627;BME280;4351;51.422;6.794;2023-05-16T09:33:00;101927.19;;;12.43;100.00
8627;BME280;4351;51.422;6.794;2023-05-16T09:35:30;101916.75;;;12.53;100.00
8627;BME280;4351;51.422;6.794;2023-05-16T09:38:01;101927.06;;;12.82;100.00
8627;BME280;4351;51.422;6.794;2023-05-16T09:40:32;101924.38;;;12.99;100.00
8627;BME280;4351;51.422;6.794;2023-05-16T09:43:05;101931.84;;;13.12;100.00
8627;BME280;4351;51.422;6.794;2023-05-16T09:45:35;101932.16;;;12.88;100.00
8627;BME280;4351;51.422;6.794;2023-05-16T09:48:04;101928.84;;;12.83;100.00
8627;BME280;4351;51.422;6.794;2023-05-16T09:50:34;101941.91;;;12.74;100.00
8627;BME280;4351;51.422;6.794;2023-05-16T09:53:04;101941.91;;;12.74;100.00
8627;BME280;4351;51.422;6.794;2023-05-16T09:55:34;101931.63;;;12.63;100.00
8627;BME280;4351;51.422;6.794;2023-05-16T09:58:02;101935.34;;;12.61;100.00
8627;BME280;4351;51.422;6.794;2023-05-16T10:00:32;101939.97;;;12.59;100.00
8627;BME280;4351;51.422;6.794;2023-05-16T10:03:01;101936.47;;;12.92;100.00
8627;BME280;4351;51.422;6.794;2023-05-16T10:05:32;101931.47;;;12.84;100.00
8627;BME280;4351;51.422;6.794;2023-05-16T10:08:04;101933.84;;;12.91;100.00
8627;BME280;4351;51.422;6.794;2023-05-16T10:10:35;101933.47;;;12.98;100.00
8627;BME280;4351;51.422;6.794;2023-05-16T10:13:06;101925.78;;;13.25;100.00
8627;BME280;4351;51.422;6.794;2023-05-16T10:15:36;101935.84;;;13.22;100.00
8627;BME280;4351;51.422;6.794;2023-05-16T10:18:06;101944.78;;;13.07;100.00
8627;BME280;4351;51.422;6.794;2023-05-16T10:20:40;101941.59;;;13.16;100.00
8627;BME280;4351;51.422;6.794;2023-05-16T10:23:12;101944.84;;;13.05;100.00
8627;BME280;4351;51.422;6.794;2023-05-16T10:25:44;101944.28;;;12.98;100.00
8627;BME280;4351;51.422;6.794;2023-05-16T10:28:13;101943.25;;;13.01;100.00
8627;BME280;4351;51.422;6.794;2023-05-16T10:30:43;101943.47;;;13.14;100.00
8627;BME280;4351;51.422;6.794;2023-05-16T10:33:14;101942.53;;;13.15;100.00
8627;BME280;4351;51.422;6.794;2023-05-16T10:35:43;101944.28;;;12.98;100.00
8627;BME280;4351;51.422;6.794;2023-05-16T10:38:14;101944.56;;;13.28;100.00
8627;BME280;4351;51.422;6.794;2023-05-16T10:40:46;101931.69;;;13.15;100.00
8627;BME280;4351;51.422;6.794;2023-05-16T10:43:22;101930.41;;;13.40;100.00
8627;BME280;4351;51.422;6.794;2023-05-16T10:45:55;101931.19;;;13.42;100.00
8627;BME280;4351;51.422;6.794;2023-05-16T10:48:30;101931.13;;;13.26;100.00
8627;BME280;4351;51.422;6.794;2023-05-16T10:51:01;101938.00;;;13.50;100.00
8627;BME280;4351;51.422;6.794;2023-05-16T10:53:34;101929.34;;;13.25;100.00
8627;BME280;4351;51.422;6.794;2023-05-16T10:56:09;101933.59;;;13.31;100.00
8627;BME280;4351;51.422;6.794;2023-05-16T10:58:40;101926.91;;;13.20;100.00
8627;BME280;4351;51.422;6.794;2023-05-16T11:01:19;101908.56;;;13.26;100.00
8627;BME280;4351;51.422;6.794;2023-05-16T11:04:06;101915.84;;;13.59;100.00
8627;BME280;4351;51.422;6.794;2023-05-16T11:06:44;101917.28;;;13.66;100.00
8627;BME280;4351;51.422;6.794;2023-05-16T11:09:24;101913.00;;;13.62;100.00
8627;BME280;4351;51.422;6.794;2023-05-16T11:11:59;101912.41;;;13.73;100.00
8627;BME280;4351;51.422;6.794;2023-05-16T11:14:36;101914.84;;;13.94;100.00
8627;BME280;4351;51.422;6.794;2023-05-16T11:17:10;101925.25;;;14.02;100.00
8627;BME280;4351;51.422;6.794;2023-05-16T11:19:44;101915.38;;;14.01;100.00
8627;BME280;4351;51.422;6.794;2023-05-16T11:22:24;101918.59;;;14.24;100.00
8627;BME280;4351;51.422;6.794;2023-05-16T11:24:57;101923.50;;;14.33;100.00
8627;BME280;4351;51.422;6.794;2023-05-16T11:27:28;101911.59;;;14.52;100.00
8627;BME280;4351;51.422;6.794;2023-05-16T11:29:59;101921.25;;;14.09;100.00
8627;BME280;4351;51.422;6.794;2023-05-16T11:32:30;101926.75;;;13.91;100.00
8627;BME280;4351;51.422;6.794;2023-05-16T11:35:01;101940.25;;;14.09;100.00
8627;BME280;4351;51.422;6.794;2023-05-16T11:37:30;101954.75;;;13.92;100.00
8627;BME280;4351;51.422;6.794;2023-05-16T11:39:58;101961.28;;;13.72;100.00
8627;BME280;4351;51.422;6.794;2023-05-16T11:42:30;101965.47;;;13.26;100.00
8627;BME280;4351;51.422;6.794;2023-05-16T11:45:06;101962.44;;;13.32;100.00
8627;BME280;4351;51.422;6.794;2023-05-16T11:47:35;101967.13;;;12.93;100.00
8627;BME280;4351;51.422;6.794;2023-05-16T11:50:05;101959.41;;;12.85;100.00
8627;BME280;4351;51.422;6.794;2023-05-16T11:52:34;101966.63;;;12.67;100.00
8627;BME280;4351;51.422;6.794;2023-05-16T11:55:04;101955.38;;;13.12;100.00
8627;BME280;4351;51.422;6.794;2023-05-16T11:57:33;101949.78;;;13.15;100.00
8627;BME280;4351;51.422;6.794;2023-05-16T12:00:03;101937.75;;;13.20;100.00
8627;BME280;4351;51.422;6.794;2023-05-16T12:02:34;101937.19;;;13.31;100.00
8627;BME280;4351;51.422;6.794;2023-05-16T12:05:06;101931.00;;;13.45;100.00
8627;BME280;4351;51.422;6.794;2023-05-16T12:07:36;101931.16;;;13.60;100.00
8627;BME280;4351;51.422;6.794;2023-05-16T12:10:05;101935.97;;;13.71;100.00
8627;BME280;4351;51.422;6.794;2023-05-16T12:12:37;101928.22;;;13.81;100.00
8627;BME280;4351;51.422;6.794;2023-05-16T12:15:07;101932.19;;;14.08;100.00
8627;BME280;4351;51.422;6.794;2023-05-16T12:17:37;101929.34;;;13.93;100.00
8627;BME280;4351;51.422;6.794;2023-05-16T12:20:08;101924.38;;;14.18;100.00
8627;BME280;4351;51.422;6.794;2023-05-16T12:22:39;101922.47;;;14.20;100.00
8627;BME280;4351;51.422;6.794;2023-05-16T12:25:25;101917.13;;;14.02;100.00
8627;BME280;4351;51.422;6.794;2023-05-16T12:27:57;101919.81;;;14.51;100.00
8627;BME280;4351;51.422;6.794;2023-05-16T12:30:26;101912.84;;;14.30;100.00
8627;BME280;4351;51.422;6.794;2023-05-16T12:32:55;101910.63;;;14.37;100.00
8627;BME280;4351;51.422;6.794;2023-05-16T12:35:24;101909.94;;;14.80;100.00
8627;BME280;4351;51.422;6.794;2023-05-16T12:37:52;101920.34;;;14.88;100.00
8627;BME280;4351;51.422;6.794;2023-05-16T12:40:21;101922.28;;;14.86;100.00
8627;BME280;4351;51.422;6.794;2023-05-16T12:42:49;101914.88;;;15.19;100.00
8627;BME280;4351;51.422;6.794;2023-05-16T12:45:20;101912.78;;;15.39;100.00
8627;BME280;4351;51.422;6.794;2023-05-16T12:47:49;101910.88;;;14.96;100.00
8627;BME280;4351;51.422;6.794;2023-05-16T12:50:18;101906.06;;;15.15;100.00
8627;BME280;4351;51.422;6.794;2023-05-16T12:52:47;101892.88;;;15.24;100.00
8627;BME280;4351;51.422;6.794;2023-05-16T12:55:20;101898.69;;;15.17;100.00
8627;BME280;4351;51.422;6.794;2023-05-16T12:57:49;101894.91;;;15.49;100.00
8627;BME280;4351;51.422;6.794;2023-05-16T13:00:19;101904.72;;;15.52;100.00
8627;BME280;4351;51.422;6.794;2023-05-16T13:02:48;101898.59;;;15.34;100.00
8627;BME280;4351;51.422;6.794;2023-05-16T13:05:18;101903.75;;;15.24;100.00
8627;BME280;4351;51.422;6.794;2023-05-16T13:07:47;101895.09;;;15.61;100.00
8627;BME280;4351;51.422;6.794;2023-05-16T13:10:17;101901.13;;;15.66;100.00
8627;BME280;4351;51.422;6.794;2023-05-16T13:12:45;101898.88;;;15.58;100.00
8627;BME280;4351;51.422;6.794;2023-05-16T13:15:13;101907.59;;;15.78;100.00